Time;durP1;ratioP1;P1;durP2;ratioP2;P2;SDS_P1;SDS_P2;PMS_P1;PMS_P2;Temp;Humidity;BMP_temperature;BMP_pressure;BME280_temperature;BME280_humidity;BME280_pressure;Samples;Min_cycle;Max_cycle;Signal;HPM_P1;HPM_P2
2024/01/05 00:01:03;;;;;;;10.90;7.00;;;6.30;99.90;;;;;;5123356;28;20459;-77
2024/01/05 00:03:37;;;;;;;10.47;7.00;;;6.30;99.90;;;;;;5125294;28;20441;-79
2024/01/05 00:06:11;;;;;;;13.73;6.83;;;6.30;99.90;;;;;;5138546;27;20443;-79
2024/01/05 00:08:57;;;;;;;12.30;6.83;;;6.20;99.90;;;;;;5143932;27;20454;-78
2024/01/05 00:14:44;;;;;;;9.10;6.27;;;6.20;99.90;;;;;;5142671;27;20462;-78
2024/01/05 00:17:21;;;;;;;9.73;7.20;;;5.90;99.90;;;;;;5144173;27;20440;-78
2024/01/05 00:19:53;;;;;;;12.93;7.70;;;6.00;99.90;;;;;;5143445;27;20478;-77
2024/01/05 00:22:31;;;;;;;9.70;7.20;;;6.00;99.90;;;;;;5142882;27;20474;-77
2024/01/05 00:25:02;;;;;;;8.53;7.47;;;6.10;99.90;;;;;;5143790;27;20467;-78
2024/01/05 00:27:47;;;;;;;6.97;6.27;;;6.10;99.90;;;;;;5145521;27;20515;-77
2024/01/05 00:30:22;;;;;;;10.60;6.80;;;6.10;99.90;;;;;;5144674;27;20470;-78
2024/01/05 00:32:54;;;;;;;12.17;6.80;;;6.10;99.90;;;;;;5146078;27;20465;-78
2024/01/05 00:35:35;;;;;;;9.33;6.83;;;6.10;99.90;;;;;;5147715;27;20442;-78
2024/01/05 00:38:06;;;;;;;8.07;6.73;;;6.10;99.90;;;;;;5147140;27;20446;-78
2024/01/05 00:40:38;;;;;;;8.00;6.30;;;6.10;99.90;;;;;;5143447;27;20440;-79
2024/01/05 00:43:21;;;;;;;11.20;6.87;;;6.10;99.90;;;;;;5143718;27;20575;-76
2024/01/05 00:45:59;;;;;;;7.70;6.63;;;5.70;99.90;;;;;;5143956;27;21026;-79
2024/01/05 00:48:46;;;;;;;8.37;6.70;;;6.00;99.90;;;;;;5143287;27;20443;-77
2024/01/05 00:51:18;;;;;;;7.33;6.03;;;6.00;99.90;;;;;;5143150;27;20467;-79
2024/01/05 00:53:59;;;;;;;13.47;7.13;;;5.70;99.90;;;;;;5143655;27;20467;-77
2024/01/05 00:56:31;;;;;;;10.30;6.97;;;6.00;99.90;;;;;;5144699;27;20453;-77
2024/01/05 00:59:03;;;;;;;8.13;5.93;;;6.00;99.90;;;;;;5143860;27;20456;-80
2024/01/05 01:01:37;;;;;;;8.53;5.20;;;6.00;99.90;;;;;;5144310;27;20453;-77
2024/01/05 01:04:25;;;;;;;5.50;4.53;;;6.00;99.90;;;;;;5145214;27;20468;-78
2024/01/05 01:07:04;;;;;;;9.60;4.57;;;6.10;99.90;;;;;;5144012;27;20448;-78
2024/01/05 01:09:34;;;;;;;4.53;3.53;;;6.20;99.90;;;;;;5143751;27;20472;-78
2024/01/05 01:12:11;;;;;;;6.23;3.20;;;6.30;99.90;;;;;;5143035;27;20549;-78
2024/01/05 01:14:54;;;;;;;9.70;3.10;;;6.40;99.90;;;;;;5140581;27;20495;-78
2024/01/05 01:17:29;;;;;;;6.13;3.27;;;6.50;99.90;;;;;;5139866;27;20453;-77
2024/01/05 01:19:58;;;;;;;3.60;3.30;;;6.20;99.90;;;;;;5140304;27;20453;-78
2024/01/05 01:22:34;;;;;;;4.87;3.10;;;6.50;99.90;;;;;;5140043;27;20462;-78
2024/01/05 01:25:10;;;;;;;4.53;3.20;;;6.50;99.90;;;;;;5140560;27;20533;-80
2024/01/05 01:27:47;;;;;;;5.80;3.00;;;6.50;99.90;;;;;;5140939;27;20503;-79
2024/01/05 01:30:21;;;;;;;5.60;3.53;;;6.50;99.90;;;;;;5136927;27;20447;-78
2024/01/05 01:32:51;;;;;;;4.47;2.87;;;6.20;99.90;;;;;;5118949;28;20478;-78
2024/01/05 01:35:29;;;;;;;11.80;4.80;;;6.20;99.90;;;;;;5127494;27;21013;-78
2024/01/05 01:37:58;;;;;;;7.20;3.40;;;6.70;99.90;;;;;;5124770;27;21052;-77
2024/01/05 01:40:31;;;;;;;4.17;3.10;;;6.50;99.90;;;;;;5129047;27;20435;-79
2024/01/05 01:43:18;;;;;;;5.53;2.90;;;6.50;99.90;;;;;;5133960;27;20469;-79
2024/01/05 01:45:52;;;;;;;3.37;2.97;;;6.50;99.90;;;;;;5129057;27;20424;-78
2024/01/05 01:48:31;;;;;;;6.60;3.77;;;6.50;99.90;;;;;;5130180;27;20529;-80
2024/01/05 01:51:10;;;;;;;6.83;3.90;;;6.50;99.90;;;;;;5133765;27;20455;-79
2024/01/05 01:53:43;;;;;;;6.10;4.10;;;6.50;99.90;;;;;;5130821;27;20465;-77
2024/01/05 01:56:13;;;;;;;5.77;4.33;;;6.40;99.90;;;;;;5131853;27;20562;-77
2024/01/05 01:58:45;;;;;;;5.17;3.73;;;6.20;99.90;;;;;;5128564;27;20430;-78
2024/01/05 02:01:36;;;;;;;6.70;4.10;;;6.40;99.90;;;;;;5126814;27;20515;-77
2024/01/05 02:04:04;;;;;;;6.47;3.87;;;6.40;99.90;;;;;;5120475;27;20435;-79
2024/01/05 02:06:35;;;;;;;5.87;4.17;;;6.40;99.90;;;;;;5126484;27;20434;-78
2024/01/05 02:09:09;;;;;;;4.73;3.97;;;6.40;99.90;;;;;;5129997;27;20430;-78
2024/01/05 02:11:53;;;;;;;5.27;4.77;;;6.40;99.90;;;;;;5133021;27;20454;-78
2024/01/05 02:14:36;;;;;;;6.90;4.77;;;6.40;99.90;;;;;;5117452;27;20859;-78
2024/01/05 02:17:43;;;;;;;7.80;4.67;;;6.40;99.90;;;;;;5118300;27;20827;-78
2024/01/05 02:20:26;;;;;;;3.90;3.60;;;6.40;99.90;;;;;;5116386;28;20468;-76
2024/01/05 02:23:05;;;;;;;8.33;4.43;;;6.40;99.90;;;;;;5120443;28;20987;-78
2024/01/05 02:25:43;;;;;;;7.50;4.53;;;6.40;99.90;;;;;;5104280;28;20466;-78
2024/01/05 02:28:24;;;;;;;4.70;4.30;;;6.40;99.90;;;;;;5121856;28;20471;-79
2024/01/05 02:31:04;;;;;;;6.60;4.43;;;6.40;99.90;;;;;;5122343;28;20488;-78
2024/01/05 02:33:41;;;;;;;5.70;4.07;;;6.40;99.90;;;;;;5123266;28;20484;-79
2024/01/05 02:36:28;;;;;;;5.03;4.10;;;6.30;99.90;;;;;;5123146;28;20447;-78
2024/01/05 02:39:10;;;;;;;8.10;5.00;;;6.30;99.90;;;;;;5121770;28;20439;-79
2024/01/05 02:41:51;;;;;;;6.80;4.40;;;6.30;99.90;;;;;;5120317;28;21010;-77
2024/01/05 02:44:29;;;;;;;6.67;3.97;;;6.00;99.90;;;;;;5120621;28;20443;-78
2024/01/05 02:47:10;;;;;;;5.30;4.73;;;6.30;99.90;;;;;;5123477;28;20450;-78
2024/01/05 02:49:55;;;;;;;5.40;4.20;;;6.30;99.90;;;;;;5125326;28;20468;-77
2024/01/05 02:52:35;;;;;;;10.80;4.73;;;6.30;99.90;;;;;;5124859;28;20528;-79
2024/01/05 02:55:04;;;;;;;7.23;4.60;;;6.30;99.90;;;;;;5124461;28;20521;-77
2024/01/05 02:57:41;;;;;;;6.50;4.70;;;6.30;99.90;;;;;;5124341;28;20473;-77
2024/01/05 03:00:14;;;;;;;10.97;5.17;;;6.30;99.90;;;;;;5123759;28;20447;-77
2024/01/05 03:02:52;;;;;;;7.10;4.70;;;6.30;99.90;;;;;;5125768;28;20487;-77
2024/01/05 03:05:22;;;;;;;6.70;4.27;;;6.20;99.90;;;;;;5122858;28;20470;-78
2024/01/05 03:07:55;;;;;;;6.70;3.50;;;6.40;99.90;;;;;;5121264;28;20447;-78
2024/01/05 03:10:28;;;;;;;6.67;4.20;;;6.30;99.90;;;;;;5122104;28;20470;-77
2024/01/05 03:12:58;;;;;;;6.53;5.30;;;6.30;99.90;;;;;;5122596;28;20443;-78
2024/01/05 03:15:31;;;;;;;6.83;3.70;;;6.20;99.90;;;;;;5125986;28;20485;-78
2024/01/05 03:18:00;;;;;;;4.70;3.47;;;6.20;99.90;;;;;;5123348;28;20447;-79
2024/01/05 03:20:31;;;;;;;6.63;4.17;;;6.20;99.90;;;;;;5121392;28;20478;-78
2024/01/05 03:23:01;;;;;;;7.60;3.57;;;6.20;99.90;;;;;;5120361;28;20568;-78
2024/01/05 03:25:37;;;;;;;6.70;4.17;;;6.20;99.90;;;;;;5119899;28;20469;-78
2024/01/05 03:28:10;;;;;;;4.27;3.70;;;6.20;99.90;;;;;;5116686;28;20443;-78
2024/01/05 03:30:42;;;;;;;6.57;3.90;;;6.20;99.90;;;;;;5116164;28;20496;-77
2024/01/05 03:33:11;;;;;;;4.53;3.80;;;6.10;99.90;;;;;;5116490;28;20483;-78
2024/01/05 03:35:41;;;;;;;4.03;2.63;;;6.30;99.90;;;;;;5116437;28;20472;-77
2024/01/05 03:38:15;;;;;;;4.13;2.60;;;6.20;99.90;;;;;;5116656;28;21008;-77
2024/01/05 03:40:45;;;;;;;6.87;2.60;;;6.40;99.90;;;;;;5116762;28;20525;-77
2024/01/05 03:43:18;;;;;;;2.90;2.10;;;6.40;99.90;;;;;;5116069;28;20439;-77
2024/01/05 03:45:46;;;;;;;5.90;2.37;;;6.50;99.90;;;;;;5116564;28;20637;-78
2024/01/05 03:48:19;;;;;;;5.93;2.17;;;6.50;99.90;;;;;;5116145;28;20951;-78
2024/01/05 03:50:51;;;;;;;2.40;2.00;;;6.60;99.90;;;;;;5115969;28;20458;-77
2024/01/05 03:53:19;;;;;;;3.40;2.03;;;6.70;99.90;;;;;;5115794;28;20956;-76
2024/01/05 03:55:49;;;;;;;5.43;2.40;;;6.70;99.90;;;;;;5116302;28;21071;-77
2024/01/05 03:58:21;;;;;;;2.30;1.83;;;6.70;99.90;;;;;;5116094;28;20440;-78
2024/01/05 04:00:52;;;;;;;4.73;2.80;;;6.70;99.90;;;;;;5115907;28;20485;-77
2024/01/05 04:03:28;;;;;;;2.10;1.90;;;7.00;99.90;;;;;;5115504;28;20474;-77
2024/01/05 04:05:59;;;;;;;3.27;2.03;;;6.80;99.90;;;;;;5115697;28;20937;-77
2024/01/05 04:08:31;;;;;;;4.53;2.17;;;6.80;99.90;;;;;;5115588;28;20446;-77
2024/01/05 04:11:09;;;;;;;2.70;2.13;;;6.80;99.90;;;;;;5115402;28;20474;-77
2024/01/05 04:13:48;;;;;;;4.77;1.90;;;6.90;99.90;;;;;;5116616;28;20446;-78
2024/01/05 04:16:27;;;;;;;2.87;1.93;;;7.00;99.90;;;;;;5115894;28;20884;-78
2024/01/05 04:19:10;;;;;;;3.70;1.90;;;7.10;99.90;;;;;;5115626;28;20447;-78
2024/01/05 04:22:09;;;;;;;3.10;2.23;;;7.10;99.90;;;;;;5115936;28;21050;-77
2024/01/05 04:24:49;;;;;;;3.37;1.97;;;7.20;99.90;;;;;;5115486;28;20509;-78
2024/01/05 04:27:32;;;;;;;2.93;1.53;;;7.30;99.90;;;;;;5115572;28;20445;-78
2024/01/05 04:30:10;;;;;;;3.93;2.07;;;7.30;99.90;;;;;;5115228;28;20477;-77
2024/01/05 04:33:05;;;;;;;2.93;1.37;;;7.40;99.90;;;;;;5115108;28;20465;-78
2024/01/05 04:35:47;;;;;;;5.93;1.90;;;7.30;99.90;;;;;;5115264;28;20484;-78
2024/01/05 04:38:34;;;;;;;1.80;1.60;;;7.40;99.90;;;;;;5115181;28;20453;-77
2024/01/05 04:41:08;;;;;;;1.10;1.00;;;7.50;99.90;;;;;;5115332;28;20452;-77
2024/01/05 04:43:54;;;;;;;2.00;1.70;;;7.60;99.90;;;;;;5115927;28;20476;-78
2024/01/05 04:46:34;;;;;;;3.47;2.73;;;7.60;99.90;;;;;;5116990;28;20445;-80
2024/01/05 04:49:08;;;;;;;5.90;1.87;;;7.90;99.90;;;;;;5117468;28;20464;-77
2024/01/05 04:51:43;;;;;;;1.83;1.50;;;7.40;99.90;;;;;;5116736;28;20467;-78
2024/01/05 04:54:16;;;;;;;2.77;1.70;;;7.70;99.90;;;;;;5115662;28;20455;-77
2024/01/05 04:56:59;;;;;;;2.90;1.77;;;7.50;99.90;;;;;;5114896;28;21009;-78
2024/01/05 04:59:45;;;;;;;2.20;1.60;;;7.90;99.90;;;;;;5116275;28;20957;-78
2024/01/05 05:02:15;;;;;;;5.27;1.80;;;7.90;99.90;;;;;;5114863;28;21081;-77
2024/01/05 05:04:54;;;;;;;2.47;1.57;;;7.90;99.90;;;;;;5115012;28;20444;-77
2024/01/05 05:07:25;;;;;;;3.80;1.80;;;7.90;99.90;;;;;;5114925;28;20940;-78
2024/01/05 05:09:55;;;;;;;2.40;1.67;;;7.90;99.90;;;;;;5114179;28;20443;-78
2024/01/05 05:12:26;;;;;;;4.77;1.93;;;7.90;99.90;;;;;;5120436;27;20461;-79
2024/01/05 05:14:57;;;;;;;2.33;1.50;;;8.00;99.90;;;;;;5134740;27;20518;-78
2024/01/05 05:17:31;;;;;;;4.03;2.87;;;8.00;99.90;;;;;;5134439;27;20928;-80
2024/01/05 05:20:13;;;;;;;2.60;1.33;;;8.00;99.90;;;;;;5134720;27;20445;-77
2024/01/05 05:22:46;;;;;;;2.20;1.57;;;8.00;99.90;;;;;;5134574;27;20471;-78
2024/01/05 05:25:17;;;;;;;1.43;1.33;;;8.00;99.90;;;;;;5134834;27;20956;-78
2024/01/05 05:27:46;;;;;;;2.10;1.30;;;8.00;99.90;;;;;;5135248;27;20425;-78
2024/01/05 05:30:19;;;;;;;2.70;1.57;;;7.90;99.90;;;;;;5136298;27;20541;-78
2024/01/05 05:32:51;;;;;;;2.50;1.50;;;8.00;99.90;;;;;;5135805;27;20501;-77
2024/01/05 05:35:28;;;;;;;4.47;1.97;;;7.90;99.90;;;;;;5134032;27;20530;-79
2024/01/05 05:38:04;;;;;;;2.27;1.63;;;7.90;99.90;;;;;;5133879;27;20447;-78
2024/01/05 05:40:40;;;;;;;1.60;1.43;;;8.00;99.90;;;;;;5134403;27;20462;-77
2024/01/05 05:43:13;;;;;;;1.73;1.40;;;8.00;99.90;;;;;;5134763;27;20424;-79
2024/01/05 05:45:45;;;;;;;1.73;1.63;;;8.00;99.90;;;;;;5134408;27;20462;-78
2024/01/05 05:48:22;;;;;;;3.60;1.50;;;8.00;99.90;;;;;;5134850;27;20450;-78
2024/01/05 05:51:11;;;;;;;;;;;;;;;;;;;;;
2024/01/05 05:53:49;;;;;;;2.63;1.63;;;8.00;99.90;;;;;;5137082;27;20508;-77
2024/01/05 05:56:18;;;;;;;2.47;1.50;;;8.00;99.90;;;;;;5136760;27;20488;-78
2024/01/05 05:59:08;;;;;;;2.77;1.90;;;8.20;99.90;;;;;;5133415;27;20450;-78
2024/01/05 06:01:45;;;;;;;3.40;1.50;;;8.00;99.90;;;;;;5115844;28;20473;-78
2024/01/05 06:04:19;;;;;;;1.83;1.30;;;8.20;99.90;;;;;;5114881;28;20533;-78
2024/01/05 06:06:49;;;;;;;3.17;1.40;;;8.00;99.90;;;;;;5114951;28;20464;-79
2024/01/05 06:09:28;;;;;;;4.33;1.83;;;8.00;99.90;;;;;;5116586;28;20790;-79
2024/01/05 06:11:59;;;;;;;2.07;1.70;;;8.00;99.90;;;;;;5115442;28;20473;-77
2024/01/05 06:14:31;;;;;;;2.00;1.77;;;8.10;99.90;;;;;;5116535;28;20518;-80
2024/01/05 06:17:03;;;;;;;2.60;1.43;;;8.00;99.90;;;;;;5115584;28;20463;-78
2024/01/05 06:19:33;;;;;;;2.70;1.90;;;8.20;99.90;;;;;;5115428;28;20484;-78
2024/01/05 06:22:04;;;;;;;3.17;1.77;;;8.00;99.90;;;;;;5114371;28;20879;-78
2024/01/05 06:24:34;;;;;;;3.33;1.60;;;7.80;99.90;;;;;;5115030;28;20814;-78
2024/01/05 06:27:06;;;;;;;1.30;1.20;;;8.10;99.90;;;;;;5114660;28;20453;-79
2024/01/05 06:29:39;;;;;;;1.90;1.40;;;8.00;99.90;;;;;;5114230;28;20777;-80
2024/01/05 06:32:08;;;;;;;2.37;1.90;;;8.00;99.90;;;;;;5113634;28;20848;-79
2024/01/05 06:34:46;;;;;;;2.10;1.60;;;8.00;99.90;;;;;;5113285;28;20458;-77
2024/01/05 06:37:20;;;;;;;1.70;1.60;;;8.00;99.90;;;;;;5113755;28;20482;-78
2024/01/05 06:39:49;;;;;;;3.07;1.80;;;8.00;99.90;;;;;;5113908;28;20449;-78
2024/01/05 06:42:17;;;;;;;1.50;1.40;;;8.00;99.90;;;;;;5113865;28;20497;-78
2024/01/05 06:44:50;;;;;;;3.27;1.43;;;7.70;99.90;;;;;;5114526;28;20443;-78
2024/01/05 06:47:31;;;;;;;2.80;1.43;;;8.00;99.90;;;;;;5115924;28;20456;-79
2024/01/05 06:50:10;;;;;;;3.50;2.10;;;7.90;99.90;;;;;;5115467;28;20447;-78
2024/01/05 06:52:41;;;;;;;2.40;2.10;;;8.00;99.90;;;;;;5117979;28;20515;-79
2024/01/05 06:55:19;;;;;;;3.97;2.33;;;8.20;99.90;;;;;;5118782;28;21161;-78
2024/01/05 06:57:56;;;;;;;1.53;1.43;;;7.70;99.90;;;;;;5117241;28;20446;-78
2024/01/05 07:00:24;;;;;;;3.27;1.60;;;8.00;99.90;;;;;;5117787;28;20477;-79
2024/01/05 07:03:03;;;;;;;2.90;1.90;;;7.90;99.90;;;;;;5118105;28;20660;-78
2024/01/05 07:05:46;;;;;;;2.73;1.63;;;7.90;99.90;;;;;;5115764;28;20910;-77
2024/01/05 07:08:17;;;;;;;2.40;1.50;;;7.90;99.90;;;;;;5115745;28;20450;-78
2024/01/05 07:10:54;;;;;;;1.57;1.47;;;8.10;99.90;;;;;;5116003;28;20451;-78
2024/01/05 07:13:33;;;;;;;3.40;1.90;;;8.10;99.90;;;;;;5114120;28;20474;-78
2024/01/05 07:16:25;;;;;;;2.57;1.43;;;7.80;99.90;;;;;;5113593;28;20474;-78
2024/01/05 07:18:55;;;;;;;2.80;1.63;;;7.90;99.90;;;;;;5114012;28;20449;-79
2024/01/05 07:21:29;;;;;;;3.97;2.00;;;7.80;99.90;;;;;;5113523;28;20466;-78
2024/01/05 07:24:03;;;;;;;3.33;2.10;;;7.80;99.90;;;;;;5112840;28;20444;-77
2024/01/05 07:26:41;;;;;;;3.67;1.80;;;7.80;99.90;;;;;;5112987;28;20452;-79
2024/01/05 07:29:21;;;;;;;4.70;2.17;;;7.80;99.90;;;;;;5113720;28;20479;-78
2024/01/05 07:31:54;;;;;;;4.30;1.80;;;7.80;99.90;;;;;;5114882;28;20504;-78
2024/01/05 07:37:18;;;;;;;1.87;1.77;;;7.80;99.90;;;;;;5114721;28;21008;-78
2024/01/05 07:40:02;;;;;;;3.30;2.00;;;8.00;99.90;;;;;;5118796;28;20462;-78
2024/01/05 07:42:40;;;;;;;2.30;2.10;;;7.80;99.90;;;;;;5117941;28;20490;-80
2024/01/05 07:45:18;;;;;;;4.00;1.97;;;7.80;99.90;;;;;;5116033;27;20977;-77
2024/01/05 07:47:57;;;;;;;3.30;2.13;;;7.50;99.90;;;;;;5117719;28;20477;-77
2024/01/05 07:50:31;;;;;;;2.30;1.70;;;7.70;99.90;;;;;;5116819;27;20447;-78
2024/01/05 07:53:09;;;;;;;3.60;1.70;;;8.00;99.90;;;;;;5116996;28;20449;-78
2024/01/05 07:55:41;;;;;;;3.07;1.93;;;7.80;99.90;;;;;;5117894;28;20471;-78
2024/01/05 07:58:09;;;;;;;1.87;1.73;;;7.80;99.90;;;;;;5117797;28;20498;-77
2024/01/05 08:00:44;;;;;;;2.60;2.17;;;7.80;99.90;;;;;;5117177;27;20447;-79
2024/01/05 08:03:21;;;;;;;3.60;1.90;;;7.80;99.90;;;;;;5116755;28;20449;-79
2024/01/05 08:05:49;;;;;;;2.10;1.93;;;7.80;99.90;;;;;;5130040;27;20447;-78
2024/01/05 08:08:28;;;;;;;4.20;1.97;;;7.80;99.90;;;;;;5141878;27;20469;-77
2024/01/05 08:10:59;;;;;;;4.47;1.90;;;7.80;99.90;;;;;;5138788;27;20520;-78
2024/01/05 08:13:40;;;;;;;3.27;2.30;;;7.90;99.90;;;;;;5139968;27;20502;-78
2024/01/05 08:16:17;;;;;;;3.40;2.50;;;7.90;99.90;;;;;;5140132;27;20497;-80
2024/01/05 08:18:51;;;;;;;5.20;3.50;;;7.90;99.90;;;;;;5138061;27;20446;-78
2024/01/05 08:21:31;;;;;;;3.93;2.40;;;7.90;99.90;;;;;;5138628;27;20524;-77
2024/01/05 08:24:08;;;;;;;3.70;2.20;;;7.70;99.90;;;;;;5137794;27;20529;-79
2024/01/05 08:26:44;;;;;;;2.17;1.97;;;8.00;99.90;;;;;;5136462;27;20489;-79
2024/01/05 08:29:17;;;;;;;2.80;1.97;;;8.00;99.90;;;;;;5136478;27;20452;-78
2024/01/05 08:31:51;;;;;;;3.70;1.83;;;8.00;99.90;;;;;;5136280;27;20457;-79
2024/01/05 08:34:33;;;;;;;2.80;2.13;;;8.10;99.90;;;;;;5136605;27;20441;-78
2024/01/05 08:37:11;;;;;;;4.60;1.80;;;8.10;99.90;;;;;;5135503;27;20526;-78
2024/01/05 08:39:50;;;;;;;4.03;1.90;;;8.10;99.90;;;;;;5135920;27;20449;-78
2024/01/05 08:42:26;;;;;;;2.40;2.20;;;8.20;99.90;;;;;;5136295;27;20472;-78
2024/01/05 08:45:01;;;;;;;4.27;2.77;;;8.20;99.90;;;;;;5135993;27;20953;-78
2024/01/05 08:47:29;;;;;;;14.17;5.50;;;8.10;99.90;;;;;;5136158;27;21021;-79
2024/01/05 08:50:00;;;;;;;5.27;2.37;;;8.40;99.90;;;;;;5137963;27;20516;-79
2024/01/05 08:52:31;;;;;;;5.97;2.27;;;8.50;99.90;;;;;;5136424;27;20849;-79
2024/01/05 08:55:04;;;;;;;6.20;3.60;;;8.40;99.90;;;;;;5135685;27;20462;-79
2024/01/05 08:57:34;;;;;;;5.27;4.10;;;8.40;99.90;;;;;;5136054;27;20508;-77
2024/01/05 09:02:57;;;;;;;4.30;3.23;;;8.50;99.90;;;;;;5132579;27;20833;-78
2024/01/05 09:05:26;;;;;;;4.00;3.60;;;8.50;99.90;;;;;;5133619;27;20470;-76
2024/01/05 09:08:09;;;;;;;7.87;3.83;;;8.50;99.90;;;;;;5129675;27;20445;-78
2024/01/05 09:10:50;;;;;;;7.07;3.90;;;8.60;99.90;;;;;;5129515;27;20450;-79
2024/01/05 09:13:31;;;;;;;6.30;3.90;;;8.60;99.90;;;;;;5128994;27;20442;-79
2024/01/05 09:15:59;;;;;;;6.00;3.50;;;8.50;99.90;;;;;;5130592;27;20434;-80
2024/01/05 09:18:33;;;;;;;4.07;3.17;;;8.40;99.90;;;;;;5133392;27;21945;-80
2024/01/05 09:21:07;;;;;;;8.30;3.73;;;8.40;99.90;;;;;;5118651;27;20790;-77
2024/01/05 09:23:43;;;;;;;8.33;3.70;;;8.30;99.90;;;;;;5124402;27;20484;-79
2024/01/05 09:26:21;;;;;;;4.30;3.10;;;8.30;99.90;;;;;;5128471;27;20865;-80
2024/01/05 09:29:00;;;;;;;5.00;3.63;;;8.50;99.90;;;;;;5127717;27;20457;-79
2024/01/05 09:31:33;;;;;;;3.37;3.07;;;8.30;99.90;;;;;;5123366;27;20485;-77
2024/01/05 09:34:05;;;;;;;3.20;2.90;;;8.50;99.90;;;;;;5124303;27;20442;-79
2024/01/05 09:36:42;;;;;;;4.63;2.90;;;8.30;99.90;;;;;;5124063;27;20470;-79
2024/01/05 09:39:21;;;;;;;5.57;2.70;;;8.30;99.90;;;;;;5119943;27;20510;-78
2024/01/05 09:41:56;;;;;;;6.20;3.47;;;8.10;99.90;;;;;;5130440;27;20485;-80
2024/01/05 09:44:34;;;;;;;5.87;2.50;;;8.40;99.90;;;;;;5133404;27;20432;-78
2024/01/05 09:47:19;;;;;;;2.60;2.40;;;8.40;99.90;;;;;;5132565;27;20446;-80
2024/01/05 09:49:57;;;;;;;4.57;2.37;;;8.50;99.90;;;;;;5139135;27;20460;-80
2024/01/05 09:52:29;;;;;;;3.30;3.00;;;8.50;99.90;;;;;;5132169;27;20445;-78
2024/01/05 09:54:56;;;;;;;2.90;2.50;;;8.70;99.90;;;;;;5132521;27;20454;-78
2024/01/05 09:57:36;;;;;;;2.63;2.43;;;8.60;99.90;;;;;;5128890;27;20473;-79
2024/01/05 10:00:20;;;;;;;2.97;2.67;;;8.90;99.90;;;;;;5128936;27;20482;-80
2024/01/05 10:03:01;;;;;;;5.00;2.33;;;8.70;99.90;;;;;;5136519;27;20894;-79
2024/01/05 10:05:32;;;;;;;2.97;2.70;;;8.70;99.90;;;;;;5126825;27;20446;-78
2024/01/05 10:08:04;;;;;;;3.80;3.17;;;8.70;99.90;;;;;;5130877;27;20439;-80
2024/01/05 10:11:02;;;;;;;4.30;3.30;;;8.70;99.90;;;;;;5129914;27;20450;-80
2024/01/05 10:13:58;;;;;;;6.17;3.23;;;8.60;99.90;;;;;;5130774;27;20435;-79
2024/01/05 10:16:37;;;;;;;3.60;3.00;;;8.80;99.90;;;;;;5133961;27;20535;-80
2024/01/05 10:19:17;;;;;;;3.50;3.20;;;8.80;99.90;;;;;;5134879;27;20454;-78
2024/01/05 10:21:55;;;;;;;5.33;3.10;;;8.90;99.90;;;;;;5120086;28;20467;-80
2024/01/05 10:24:29;;;;;;;3.60;2.70;;;8.90;99.90;;;;;;5137492;27;20453;-80
2024/01/05 10:27:07;;;;;;;7.00;3.00;;;8.90;99.90;;;;;;5119888;27;20447;-79
2024/01/05 10:29:45;;;;;;;5.07;2.73;;;8.90;99.90;;;;;;5122604;28;20815;-82
2024/01/05 10:32:21;;;;;;;2.97;2.77;;;9.00;99.90;;;;;;5119576;28;20453;-79
2024/01/05 10:35:03;;;;;;;3.87;2.77;;;9.00;99.90;;;;;;5128461;28;20438;-80
2024/01/05 10:37:39;;;;;;;3.80;2.23;;;8.70;99.90;;;;;;5120943;28;20520;-79
2024/01/05 10:40:26;;;;;;;2.70;2.50;;;9.10;99.90;;;;;;5131330;28;20454;-78
2024/01/05 10:43:25;;;;;;;2.87;2.67;;;8.90;99.90;;;;;;5125111;28;20484;-80
2024/01/05 10:46:09;;;;;;;4.93;2.70;;;9.20;99.90;;;;;;5101209;28;20439;-81
2024/01/05 10:48:57;;;;;;;3.57;2.67;;;9.00;99.90;;;;;;5135329;28;20542;-79
2024/01/05 10:51:42;;;;;;;3.60;2.90;;;9.30;99.90;;;;;;5126403;28;20521;-80
2024/01/05 10:54:12;;;;;;;3.23;2.83;;;9.40;99.90;;;;;;5124850;28;20455;-78
2024/01/05 10:56:44;;;;;;;5.57;2.97;;;9.50;99.90;;;;;;5131092;28;20542;-79
2024/01/05 10:59:16;;;;;;;5.60;3.47;;;9.70;99.90;;;;;;5134233;28;20442;-80
2024/01/05 11:02:17;;;;;;;5.17;3.27;;;9.50;99.90;;;;;;5143464;28;20525;-80
2024/01/05 11:05:11;;;;;;;5.03;3.03;;;9.30;99.90;;;;;;5134087;28;20447;-81
2024/01/05 11:07:51;;;;;;;4.00;2.97;;;9.60;99.90;;;;;;5130540;27;20468;-82
2024/01/05 11:10:33;;;;;;;6.20;2.70;;;9.60;99.90;;;;;;5127819;27;20449;-83
2024/01/05 11:13:51;;;;;;;3.43;2.87;;;9.70;99.90;;;;;;5125229;28;20508;-79
2024/01/05 11:16:54;;;;;;;4.53;3.73;;;9.80;99.90;;;;;;5137676;27;20436;-81
2024/01/05 11:20:00;;;;;;;11.50;4.17;;;9.80;99.90;;;;;;5077756;27;20495;-82
2024/01/05 11:22:56;;;;;;;4.70;4.20;;;9.80;99.90;;;;;;5139946;27;20492;-82
2024/01/05 11:25:36;;;;;;;6.67;5.07;;;9.70;99.90;;;;;;5138014;27;20857;-79
2024/01/05 11:28:44;;;;;;;6.20;4.93;;;9.40;99.90;;;;;;5137167;27;20445;-80
2024/01/05 11:32:09;;;;;;;;;;;;;;;;;;;;;
2024/01/05 11:34:42;;;;;;;5.93;4.23;;;9.60;99.90;;;;;;5122050;28;20430;-79
2024/01/05 11:37:29;;;;;;;4.93;4.43;;;9.50;99.90;;;;;;5121325;28;20471;-79
2024/01/05 11:40:03;;;;;;;7.40;4.40;;;9.70;99.90;;;;;;5120529;28;20535;-81
2024/01/05 11:42:41;;;;;;;5.50;4.50;;;9.90;99.90;;;;;;5121062;28;20841;-79
2024/01/05 11:45:39;;;;;;;10.30;5.20;;;9.60;99.90;;;;;;5118192;28;20468;-78
2024/01/05 11:48:10;;;;;;;5.30;4.70;;;9.60;99.90;;;;;;5120547;28;20439;-79
2024/01/05 11:50:44;;;;;;;8.87;5.60;;;9.70;99.90;;;;;;5119839;28;20513;-79
2024/01/05 11:53:22;;;;;;;8.30;5.37;;;9.70;99.90;;;;;;5120555;28;20450;-80
2024/01/05 11:56:07;;;;;;;5.10;4.60;;;9.80;99.90;;;;;;5123452;28;20447;-79
2024/01/05 11:58:46;;;;;;;5.73;3.97;;;9.80;99.90;;;;;;5121052;28;20888;-79
2024/01/05 12:01:23;;;;;;;5.90;4.53;;;9.80;99.90;;;;;;5121752;28;20466;-80
2024/01/05 12:04:06;;;;;;;7.43;3.47;;;9.80;99.90;;;;;;5122706;28;20446;-81
2024/01/05 12:06:43;;;;;;;5.80;4.50;;;9.90;99.90;;;;;;5121852;28;20457;-79
2024/01/05 12:09:15;;;;;;;5.60;2.97;;;10.00;99.90;;;;;;5125618;28;20451;-79
2024/01/05 12:12:17;;;;;;;4.73;3.03;;;9.80;99.90;;;;;;5128351;28;20450;-81
2024/01/05 12:15:08;;;;;;;3.10;2.37;;;10.00;99.90;;;;;;5125604;28;20500;-79
2024/01/05 12:17:42;;;;;;;2.60;2.37;;;10.00;99.90;;;;;;5126076;28;20471;-80
2024/01/05 12:20:22;;;;;;;4.60;2.73;;;10.00;99.90;;;;;;5126253;28;20918;-82
2024/01/05 12:23:00;;;;;;;3.93;2.30;;;10.00;99.90;;;;;;5128572;28;20735;-82
2024/01/05 12:25:39;;;;;;;3.57;2.63;;;10.00;99.90;;;;;;5129326;28;20458;-81
2024/01/05 12:28:25;;;;;;;3.20;2.37;;;10.00;99.90;;;;;;5125347;28;20467;-81
2024/01/05 12:30:59;;;;;;;2.37;2.17;;;10.00;99.90;;;;;;5123058;28;20550;-81
2024/01/05 12:33:40;;;;;;;4.33;2.80;;;10.10;99.90;;;;;;5129085;28;20442;-78
2024/01/05 12:36:17;;;;;;;5.33;2.70;;;10.00;99.90;;;;;;5133036;28;20443;-77
2024/01/05 12:39:12;;;;;;;8.57;3.00;;;10.00;99.90;;;;;;5133595;28;20477;-78
2024/01/05 12:41:48;;;;;;;4.00;2.33;;;10.00;99.90;;;;;;5131330;28;20491;-79
2024/01/05 12:44:38;;;;;;;3.07;2.17;;;10.10;99.90;;;;;;5126164;28;20525;-80
2024/01/05 12:47:27;;;;;;;2.60;2.40;;;10.10;99.90;;;;;;5127466;28;20477;-81
2024/01/05 12:49:59;;;;;;;5.13;2.70;;;10.10;99.90;;;;;;5129574;28;20510;-80
2024/01/05 12:52:36;;;;;;;5.77;2.63;;;10.00;99.90;;;;;;5127018;28;20467;-79
2024/01/05 12:55:13;;;;;;;2.80;2.60;;;10.10;99.90;;;;;;5127931;28;20511;-80
2024/01/05 12:57:54;;;;;;;6.93;3.00;;;10.10;99.90;;;;;;5127925;28;20474;-81
2024/01/05 13:00:46;;;;;;;4.57;2.60;;;10.10;99.90;;;;;;5129763;28;20462;-80
2024/01/05 13:03:20;;;;;;;6.73;2.30;;;10.10;99.90;;;;;;5129407;28;20427;-80
2024/01/05 13:06:03;;;;;;;3.90;2.13;;;10.20;99.90;;;;;;5130014;28;20959;-79
2024/01/05 13:08:52;;;;;;;3.20;2.90;;;10.30;99.90;;;;;;5129949;28;20442;-80
2024/01/05 13:11:39;;;;;;;4.40;3.70;;;10.30;99.90;;;;;;5130074;28;20467;-81
2024/01/05 13:14:30;;;;;;;6.30;5.17;;;10.40;99.90;;;;;;5125879;28;20471;-79
2024/01/05 13:17:17;;;;;;;6.67;5.30;;;10.30;99.90;;;;;;5122212;28;20522;-79
2024/01/05 13:20:09;;;;;;;9.00;5.40;;;10.40;99.90;;;;;;5122514;28;20454;-80
2024/01/05 13:22:46;;;;;;;5.37;4.60;;;10.30;99.90;;;;;;5121726;28;20503;-80
2024/01/05 13:25:32;;;;;;;58.53;41.03;;;10.30;99.90;;;;;;5120570;28;20443;-82
2024/01/05 13:30:51;;;;;;;10.67;8.50;;;10.40;99.90;;;;;;5120324;28;20514;-80
2024/01/05 13:33:32;;;;;;;7.10;5.07;;;10.40;99.90;;;;;;5119140;28;20674;-80
2024/01/05 13:36:03;;;;;;;6.60;5.30;;;10.30;99.90;;;;;;5119288;28;20489;-81
2024/01/05 13:38:38;;;;;;;7.80;5.63;;;10.40;99.90;;;;;;5118967;28;20488;-79
2024/01/05 13:41:13;;;;;;;8.93;5.13;;;10.40;99.90;;;;;;5119603;28;20466;-80
2024/01/05 13:43:48;;;;;;;7.90;4.90;;;10.30;99.90;;;;;;5119642;28;20453;-79
2024/01/05 13:46:30;;;;;;;9.23;6.17;;;10.30;99.90;;;;;;5120026;28;20530;-80
2024/01/05 13:49:10;;;;;;;5.77;5.20;;;10.30;99.90;;;;;;5117207;28;20473;-80
2024/01/05 13:51:42;;;;;;;8.43;5.53;;;10.40;99.90;;;;;;5116992;28;20471;-80
2024/01/05 13:54:30;;;;;;;5.43;5.00;;;10.40;99.90;;;;;;5117329;28;20443;-80
2024/01/05 13:57:01;;;;;;;11.10;5.60;;;10.30;99.90;;;;;;5123736;27;20471;-78
2024/01/05 13:59:46;;;;;;;7.80;5.20;;;10.30;99.90;;;;;;5125550;27;20467;-79
2024/01/05 14:02:25;;;;;;;8.50;3.80;;;10.30;99.90;;;;;;5126174;27;20466;-80
2024/01/05 14:05:04;;;;;;;5.17;4.10;;;10.30;99.90;;;;;;5119951;27;20451;-81